Terminal Aerodrome Forecast
Issued by NWS

Home | Current Version | Previous Version | Text Only | Print | Product List | Glossary On
Versions: 1 2 3 4 5 6 7 8 9 10 11 12 13 14 15 16 17 18 19 20 21 22 23 24 25
659
FTUS43 KDLH 111736
TAFHYR
TAF
KHYR 111736Z 1118/1218 24005KT P6SM OVC090
     FM120100 VRB03KT P6SM SCT015 BKN035 OVC050
      TEMPO 1202/1206 BKN015 OVC035
     FM121000 30003KT P6SM SCT015
     FM121200 32008KT P6SM OVC250
     FM121700 33010G17KT P6SM OVC250=

USA.gov is the U.S. government's official web portal to all federal, state and local government web resources and services.